Time;durP1;ratioP1;P1;durP2;ratioP2;P2;SDS_P1;SDS_P2;PMS_P1;PMS_P2;Temp;Humidity;BMP_temperature;BMP_pressure;BME280_temperature;BME280_humidity;BME280_pressure;Samples;Min_cycle;Max_cycle;Signal;HPM_P1;HPM_P2
2023/01/07 00:01:05;;;;;;;1.30;1.17;;;9.40;99.90;;;;;;4989354;28;20488;-80
2023/01/07 00:03:31;;;;;;;1.33;1.23;;;9.40;99.90;;;;;;4973456;28;20812;-81
2023/01/07 00:06:01;;;;;;;3.23;1.20;;;9.30;99.90;;;;;;4990958;28;20456;-81
2023/01/07 00:08:31;;;;;;;3.63;1.50;;;9.30;99.90;;;;;;4973337;28;20432;-81
2023/01/07 00:11:00;;;;;;;1.40;1.30;;;9.20;99.90;;;;;;4973659;28;20457;-78
2023/01/07 00:13:26;;;;;;;1.57;1.47;;;9.30;99.90;;;;;;4973251;28;20522;-79
2023/01/07 00:16:00;;;;;;;3.20;1.27;;;9.30;99.90;;;;;;4989793;28;20433;-81
2023/01/07 00:18:26;;;;;;;1.97;1.60;;;9.30;99.90;;;;;;4973304;28;20538;-81
2023/01/07 00:20:51;;;;;;;3.30;2.17;;;9.20;99.90;;;;;;4973043;28;20460;-81
2023/01/07 00:23:17;;;;;;;10.83;2.03;;;9.20;99.90;;;;;;4973365;28;20438;-81
2023/01/07 00:25:42;;;;;;;2.20;2.00;;;9.20;99.90;;;;;;4989774;28;20194;-81
2023/01/07 00:28:08;;;;;;;8.60;2.40;;;9.20;99.90;;;;;;4973326;28;20245;-80
2023/01/07 00:30:34;;;;;;;2.47;2.27;;;9.20;99.90;;;;;;4973466;28;20216;-82
2023/01/07 00:35:27;;;;;;;2.40;2.20;;;9.20;99.90;;;;;;4989466;28;20186;-80
2023/01/07 00:37:53;;;;;;;5.07;3.20;;;9.20;99.90;;;;;;4957356;28;20433;-81
2023/01/07 00:40:20;;;;;;;1.53;1.43;;;9.20;99.90;;;;;;4973508;28;20382;-80
2023/01/07 00:45:40;;;;;;;1.70;1.60;;;9.10;99.90;;;;;;4973605;28;20429;-81
2023/01/07 00:48:06;;;;;;;1.50;1.40;;;9.10;99.90;;;;;;4973039;28;20429;-82
2023/01/07 00:50:35;;;;;;;3.53;2.03;;;9.10;99.90;;;;;;4956882;28;20606;-80
2023/01/07 00:53:01;;;;;;;3.23;1.50;;;9.30;99.90;;;;;;4989374;28;20245;-79
2023/01/07 00:55:27;;;;;;;1.50;1.40;;;9.00;99.90;;;;;;4989598;28;20464;-80
2023/01/07 00:57:53;;;;;;;3.50;1.53;;;9.10;99.90;;;;;;4990800;28;20468;-81
2023/01/07 01:00:21;;;;;;;2.37;1.47;;;9.10;99.90;;;;;;4973004;28;20551;-81
2023/01/07 01:02:47;;;;;;;1.60;1.00;;;9.00;99.90;;;;;;4972936;28;20437;-79
2023/01/07 01:05:13;;;;;;;1.50;1.00;;;8.90;99.90;;;;;;4990429;28;20425;-77
2023/01/07 01:07:39;;;;;;;1.23;0.90;;;9.00;99.90;;;;;;4990275;28;20433;-78
2023/01/07 01:10:09;;;;;;;2.70;1.37;;;9.00;99.90;;;;;;4972019;28;20429;-77
2023/01/07 01:12:35;;;;;;;2.93;1.10;;;9.00;99.90;;;;;;4990141;28;20474;-79
2023/01/07 01:15:03;;;;;;;1.60;1.00;;;8.90;99.90;;;;;;4990264;28;20420;-79
2023/01/07 01:17:28;;;;;;;1.90;1.10;;;8.90;99.90;;;;;;4972522;28;20434;-78
2023/01/07 01:19:54;;;;;;;1.27;1.17;;;9.10;99.90;;;;;;4990110;28;20421;-78
2023/01/07 01:22:19;;;;;;;1.93;1.53;;;9.00;99.90;;;;;;4972250;28;20214;-82
2023/01/07 01:24:45;;;;;;;2.50;1.10;;;9.10;99.90;;;;;;4956142;28;20194;-82
2023/01/07 01:27:11;;;;;;;1.87;1.40;;;8.90;99.90;;;;;;4972167;28;20197;-81
2023/01/07 01:29:36;;;;;;;1.43;1.27;;;9.20;99.90;;;;;;4955886;28;20198;-77
2023/01/07 01:32:02;;;;;;;2.03;1.50;;;9.10;99.90;;;;;;4989561;28;20649;-82
2023/01/07 01:34:28;;;;;;;2.00;1.30;;;9.10;99.90;;;;;;4971907;28;20308;-82
2023/01/07 01:36:53;;;;;;;6.63;2.00;;;9.10;99.90;;;;;;4971840;28;20193;-82
2023/01/07 01:39:19;;;;;;;3.77;1.83;;;9.30;99.90;;;;;;4988524;28;20197;-81
2023/01/07 01:41:46;;;;;;;1.77;1.67;;;9.00;99.90;;;;;;4988650;28;20202;-82
2023/01/07 01:44:33;;;;;;;1.20;1.00;;;9.00;99.90;;;;;;4972120;28;20197;-82
2023/01/07 01:47:00;;;;;;;3.00;1.10;;;8.90;99.90;;;;;;4990835;28;20493;-83
2023/01/07 01:49:35;;;;;;;1.60;1.50;;;9.00;99.90;;;;;;4980242;28;20432;-83
2023/01/07 01:52:14;;;;;;;1.27;1.13;;;8.90;99.90;;;;;;4979439;28;20507;-83
2023/01/07 01:54:44;;;;;;;1.37;1.27;;;9.00;99.90;;;;;;4980116;28;20425;-82
2023/01/07 01:57:10;;;;;;;1.20;1.10;;;8.90;99.90;;;;;;4977466;28;20437;-80
2023/01/07 01:59:40;;;;;;;1.57;1.13;;;9.10;99.90;;;;;;5009475;28;20444;-79
2023/01/07 02:02:05;;;;;;;1.53;1.43;;;9.10;99.90;;;;;;5009546;28;20194;-78
2023/01/07 02:04:32;;;;;;;2.40;1.50;;;9.10;99.90;;;;;;5011058;28;20449;-81
2023/01/07 02:07:03;;;;;;;1.20;1.10;;;9.00;99.90;;;;;;4988745;28;20514;-83
2023/01/07 02:09:28;;;;;;;1.63;1.53;;;9.00;99.90;;;;;;4976562;28;20444;-83
2023/01/07 02:12:26;;;;;;;3.90;1.37;;;9.00;99.90;;;;;;4958154;28;20489;-81
2023/01/07 02:15:03;;;;;;;2.57;1.20;;;9.00;99.90;;;;;;4992149;28;20173;-79
2023/01/07 02:17:50;;;;;;;1.57;1.20;;;9.00;99.90;;;;;;4990766;28;20431;-79
2023/01/07 02:20:36;;;;;;;0.80;0.80;;;9.00;99.90;;;;;;4995543;28;20406;-83
2023/01/07 02:23:30;;;;;;;1.23;1.13;;;9.00;99.90;;;;;;4979576;28;20508;-83
2023/01/07 02:26:17;;;;;;;1.10;1.00;;;8.90;99.90;;;;;;4979472;28;20436;-82
2023/01/07 02:29:12;;;;;;;1.67;1.07;;;9.00;99.90;;;;;;4996054;28;20467;-82
2023/01/07 02:32:02;;;;;;;1.17;1.07;;;9.00;99.90;;;;;;4959733;28;20484;-82
2023/01/07 02:34:55;;;;;;;1.47;1.03;;;8.90;99.90;;;;;;4995318;28;20777;-82
2023/01/07 02:37:40;;;;;;;3.17;2.40;;;8.90;99.90;;;;;;4980032;28;20517;-81
2023/01/07 02:40:45;;;;;;;1.63;1.50;;;9.00;99.90;;;;;;4995264;28;20430;-81
2023/01/07 02:43:28;;;;;;;1.40;0.97;;;9.00;99.90;;;;;;4968300;28;20450;-80
2023/01/07 02:46:13;;;;;;;1.20;1.10;;;9.00;99.90;;;;;;4978886;28;21117;-81
2023/01/07 02:48:39;;;;;;;1.30;1.20;;;9.00;99.90;;;;;;4978666;28;20485;-80
2023/01/07 02:51:05;;;;;;;1.10;1.00;;;8.90;99.90;;;;;;4977482;28;20509;-81
2023/01/07 02:53:32;;;;;;;0.90;0.80;;;8.90;99.90;;;;;;4975957;28;20560;-81
2023/01/07 02:55:57;;;;;;;1.37;1.10;;;8.80;99.90;;;;;;4993266;28;20200;-81
2023/01/07 02:58:42;;;;;;;0.87;0.87;;;8.90;99.90;;;;;;4992844;28;20990;-80
2023/01/07 03:01:48;;;;;;;0.80;0.80;;;8.90;99.90;;;;;;4991562;28;20199;-81
2023/01/07 03:04:57;;;;;;;1.10;0.83;;;8.90;99.90;;;;;;4992850;28;20406;-80
2023/01/07 03:08:05;;;;;;;1.00;0.63;;;9.00;99.90;;;;;;4975213;28;20570;-80
2023/01/07 03:10:50;;;;;;;1.10;1.00;;;9.00;99.90;;;;;;4974910;28;20443;-80
2023/01/07 03:13:23;;;;;;;0.90;0.90;;;8.90;99.90;;;;;;4991913;28;20939;-80
2023/01/07 03:16:30;;;;;;;0.80;0.80;;;9.00;99.90;;;;;;4974008;28;20444;-80
2023/01/07 03:19:02;;;;;;;1.20;1.10;;;8.90;99.90;;;;;;4949846;28;20436;-81
2023/01/07 03:21:31;;;;;;;1.27;1.07;;;8.90;99.90;;;;;;4949890;28;20450;-81
2023/01/07 03:23:59;;;;;;;1.20;1.10;;;8.70;99.90;;;;;;4956007;28;20921;-80
2023/01/07 03:26:30;;;;;;;1.00;0.90;;;8.90;99.90;;;;;;4973592;28;20451;-81
2023/01/07 03:28:58;;;;;;;1.00;0.90;;;8.90;99.90;;;;;;4957986;28;20480;-81
2023/01/07 03:31:25;;;;;;;1.10;1.00;;;8.90;99.90;;;;;;4989142;28;20433;-80
2023/01/07 03:33:54;;;;;;;0.93;0.87;;;8.90;99.90;;;;;;4989923;28;20781;-81
2023/01/07 03:36:24;;;;;;;3.07;1.00;;;9.10;99.90;;;;;;4990165;28;20417;-79
2023/01/07 03:38:51;;;;;;;1.23;0.80;;;9.10;99.90;;;;;;4992057;28;20424;-80
2023/01/07 03:44:13;;;;;;;1.53;0.83;;;8.80;99.90;;;;;;4921111;28;20425;-78
2023/01/07 03:46:38;;;;;;;0.90;0.80;;;8.90;99.90;;;;;;4990066;28;20402;-79
2023/01/07 03:49:04;;;;;;;0.90;0.80;;;8.90;99.90;;;;;;4989820;28;20217;-78
2023/01/07 03:51:30;;;;;;;0.80;0.73;;;8.90;99.90;;;;;;4989948;28;20445;-78
2023/01/07 03:53:55;;;;;;;1.87;0.80;;;8.90;99.90;;;;;;4973858;28;20190;-78
2023/01/07 03:56:21;;;;;;;1.13;1.03;;;8.80;99.90;;;;;;4991509;28;20197;-78
2023/01/07 03:58:46;;;;;;;1.03;0.90;;;8.80;99.90;;;;;;4991619;28;20234;-78
2023/01/07 04:01:12;;;;;;;0.80;0.70;;;8.80;99.90;;;;;;4957782;28;20264;-80
2023/01/07 04:03:37;;;;;;;20.07;8.13;;;8.90;99.90;;;;;;4990026;28;20651;-81
2023/01/07 04:06:03;;;;;;;2.17;1.90;;;8.80;99.90;;;;;;4991524;28;20190;-80
2023/01/07 04:08:29;;;;;;;2.13;1.47;;;8.70;99.90;;;;;;4959051;28;20196;-81
2023/01/07 04:10:54;;;;;;;1.60;1.20;;;8.60;99.90;;;;;;4958966;28;20213;-79
2023/01/07 04:13:20;;;;;;;1.40;1.30;;;8.60;99.90;;;;;;4975287;28;20218;-79
2023/01/07 04:15:45;;;;;;;1.97;1.87;;;8.80;99.90;;;;;;4990116;28;20188;-80
2023/01/07 04:18:11;;;;;;;2.10;2.00;;;8.60;99.90;;;;;;4989996;28;20189;-80
2023/01/07 04:20:36;;;;;;;2.23;2.13;;;8.50;99.90;;;;;;4990351;28;20212;-81
2023/01/07 04:23:02;;;;;;;1.50;1.40;;;8.50;99.90;;;;;;4958342;28;20280;-83
2023/01/07 04:25:30;;;;;;;2.37;1.80;;;8.40;99.90;;;;;;4958503;28;20689;-84
2023/01/07 04:27:55;;;;;;;1.90;1.80;;;8.50;99.90;;;;;;4973904;28;20192;-83
2023/01/07 04:30:21;;;;;;;2.60;1.87;;;8.60;99.90;;;;;;4988905;28;20449;-82
2023/01/07 04:32:46;;;;;;;1.60;1.50;;;8.40;99.90;;;;;;4956825;28;20225;-83
2023/01/07 04:35:12;;;;;;;1.40;1.30;;;8.50;99.90;;;;;;4972811;28;20189;-83
2023/01/07 04:37:38;;;;;;;1.43;1.33;;;8.40;99.90;;;;;;4957145;28;20656;-80
2023/01/07 04:40:04;;;;;;;2.27;1.83;;;8.50;99.90;;;;;;4988804;28;20561;-79
2023/01/07 04:42:29;;;;;;;1.87;1.77;;;8.50;99.90;;;;;;4956453;28;20193;-79
2023/01/07 04:44:55;;;;;;;2.10;1.63;;;8.40;99.90;;;;;;4987752;28;20446;-79
2023/01/07 04:47:20;;;;;;;3.70;2.43;;;8.30;99.90;;;;;;4988656;28;20271;-79
2023/01/07 04:49:46;;;;;;;2.57;2.30;;;8.40;99.90;;;;;;4988557;28;20196;-79
2023/01/07 04:52:11;;;;;;;2.40;2.20;;;8.30;99.90;;;;;;4988436;28;20226;-79
2023/01/07 04:54:37;;;;;;;2.33;2.20;;;8.20;99.90;;;;;;4988329;28;20193;-79
2023/01/07 04:57:02;;;;;;;2.40;2.20;;;8.30;99.90;;;;;;4956060;28;20224;-79
2023/01/07 04:59:28;;;;;;;1.60;1.50;;;8.30;99.90;;;;;;4972710;28;20182;-79
2023/01/07 05:01:54;;;;;;;1.67;1.57;;;8.30;99.90;;;;;;4989748;28;20859;-79
2023/01/07 05:04:19;;;;;;;1.70;1.60;;;8.40;99.90;;;;;;4972460;28;20265;-79
2023/01/07 05:06:45;;;;;;;1.90;1.80;;;8.40;99.90;;;;;;4988364;28;20867;-79
2023/01/07 05:09:11;;;;;;;2.43;2.23;;;8.40;99.90;;;;;;4972105;28;20189;-79
2023/01/07 05:11:36;;;;;;;2.80;1.67;;;8.30;99.90;;;;;;4989577;28;20508;-79
2023/01/07 05:14:02;;;;;;;2.20;2.03;;;8.30;99.90;;;;;;4989972;28;20269;-80
2023/01/07 05:16:28;;;;;;;1.97;1.87;;;8.40;99.90;;;;;;4972439;28;20189;-79
2023/01/07 05:18:54;;;;;;;2.30;2.10;;;8.30;99.90;;;;;;4972220;28;20185;-79
2023/01/07 05:21:19;;;;;;;1.80;1.70;;;8.30;99.90;;;;;;4988046;28;20209;-79
2023/01/07 05:23:45;;;;;;;4.90;2.13;;;8.30;99.90;;;;;;4988045;28;20190;-79
2023/01/07 05:26:10;;;;;;;2.67;1.97;;;8.40;99.90;;;;;;4988472;28;20189;-79
2023/01/07 05:28:36;;;;;;;2.73;2.53;;;8.30;99.90;;;;;;4972051;28;20284;-79
2023/01/07 05:31:02;;;;;;;1.87;1.77;;;8.30;99.90;;;;;;4955439;28;20214;-79
2023/01/07 05:33:27;;;;;;;2.60;1.77;;;8.40;99.90;;;;;;4971499;28;20260;-80
2023/01/07 05:35:53;;;;;;;1.77;1.67;;;8.50;99.90;;;;;;4989381;28;20711;-79
2023/01/07 05:38:19;;;;;;;1.67;1.57;;;8.50;99.90;;;;;;4987999;28;20222;-80
2023/01/07 05:40:48;;;;;;;1.70;1.60;;;8.50;99.90;;;;;;4971614;28;20213;-79
2023/01/07 05:43:14;;;;;;;2.10;1.90;;;8.40;99.90;;;;;;4987843;28;20201;-79
2023/01/07 05:45:43;;;;;;;1.50;1.40;;;8.30;99.90;;;;;;4971824;28;20493;-81
2023/01/07 05:48:09;;;;;;;1.60;1.40;;;8.30;99.90;;;;;;4989541;28;21228;-81
2023/01/07 05:50:34;;;;;;;1.97;1.77;;;8.30;99.90;;;;;;4955983;28;20482;-79
2023/01/07 05:53:00;;;;;;;1.97;1.87;;;8.40;99.90;;;;;;4956217;28;20217;-81
2023/01/07 05:55:25;;;;;;;2.27;2.17;;;8.20;99.90;;;;;;4973457;28;20292;-81
2023/01/07 05:57:51;;;;;;;2.10;1.90;;;8.30;99.90;;;;;;4975900;28;20194;-81
2023/01/07 06:00:17;;;;;;;2.10;1.90;;;8.50;99.90;;;;;;4974821;28;20660;-75
2023/01/07 06:02:43;;;;;;;2.20;2.10;;;8.40;99.90;;;;;;4991018;28;20187;-75
2023/01/07 06:05:09;;;;;;;2.00;1.90;;;8.40;99.90;;;;;;4992324;28;20428;-76
2023/01/07 06:07:35;;;;;;;2.40;2.20;;;8.40;99.90;;;;;;4991211;28;20182;-77
2023/01/07 06:10:00;;;;;;;2.00;1.90;;;8.40;99.90;;;;;;4992802;28;20434;-76
2023/01/07 06:12:26;;;;;;;4.17;3.43;;;8.40;99.90;;;;;;4991473;28;20690;-76
2023/01/07 06:14:51;;;;;;;2.90;2.40;;;8.40;99.90;;;;;;4990852;28;20184;-77
2023/01/07 06:17:17;;;;;;;4.50;3.60;;;8.50;99.90;;;;;;4990565;28;20186;-76
2023/01/07 06:19:43;;;;;;;3.63;3.33;;;8.50;99.90;;;;;;4974518;28;20182;-76
2023/01/07 06:22:08;;;;;;;2.60;2.40;;;8.50;99.90;;;;;;4990468;28;20310;-77
2023/01/07 06:24:34;;;;;;;3.60;2.40;;;8.50;99.90;;;;;;4990575;28;20247;-76
2023/01/07 06:26:59;;;;;;;2.77;2.57;;;8.50;99.90;;;;;;4991832;28;20194;-78
2023/01/07 06:29:25;;;;;;;2.67;2.47;;;8.40;99.90;;;;;;4992343;28;20631;-76
2023/01/07 06:31:50;;;;;;;2.07;1.90;;;8.40;99.90;;;;;;4990348;28;20217;-77
2023/01/07 06:34:16;;;;;;;2.50;2.30;;;8.30;99.90;;;;;;4990471;28;20194;-77
2023/01/07 06:36:41;;;;;;;2.33;2.13;;;8.30;99.90;;;;;;4990796;28;20192;-80
2023/01/07 06:39:07;;;;;;;2.17;2.00;;;8.30;99.90;;;;;;4974829;28;20182;-77
2023/01/07 06:41:33;;;;;;;1.57;1.47;;;8.50;99.90;;;;;;4990775;28;20206;-76
2023/01/07 06:43:58;;;;;;;2.30;1.97;;;8.30;99.90;;;;;;4992023;28;20185;-77
2023/01/07 06:46:24;;;;;;;1.93;1.70;;;8.40;99.90;;;;;;4991715;28;20306;-77
2023/01/07 06:48:50;;;;;;;2.00;1.87;;;8.30;99.90;;;;;;4990199;28;20193;-77
2023/01/07 06:51:15;;;;;;;2.60;1.70;;;8.30;99.90;;;;;;4990336;28;20715;-77
2023/01/07 06:53:41;;;;;;;4.60;1.80;;;8.30;99.90;;;;;;4991509;28;20224;-77
2023/01/07 06:56:06;;;;;;;1.73;1.63;;;8.30;99.90;;;;;;4991723;28;20188;-76
2023/01/07 06:58:32;;;;;;;2.80;1.83;;;8.30;99.90;;;;;;4991627;28;20189;-76
2023/01/07 07:01:03;;;;;;;3.00;2.77;;;8.30;99.90;;;;;;4989741;28;20244;-76
2023/01/07 07:03:28;;;;;;;4.00;3.27;;;8.20;99.90;;;;;;4991444;28;21044;-76
2023/01/07 07:05:54;;;;;;;3.30;3.00;;;8.30;99.90;;;;;;4989932;28;20430;-76
2023/01/07 07:08:19;;;;;;;3.23;2.93;;;8.20;99.90;;;;;;4990437;28;20182;-76
2023/01/07 07:10:45;;;;;;;3.93;3.50;;;8.30;99.90;;;;;;4990139;28;20304;-76
2023/01/07 07:13:11;;;;;;;2.90;2.70;;;8.40;99.90;;;;;;4989790;28;20213;-75
2023/01/07 07:15:36;;;;;;;5.23;3.83;;;8.20;99.90;;;;;;4990926;28;20268;-76
2023/01/07 07:18:02;;;;;;;3.23;2.90;;;8.30;99.90;;;;;;4990929;28;20213;-75
2023/01/07 07:20:28;;;;;;;6.83;2.70;;;8.20;99.90;;;;;;4989392;28;20234;-75
2023/01/07 07:22:53;;;;;;;3.37;3.07;;;8.10;99.90;;;;;;4989371;28;20288;-75
2023/01/07 07:25:19;;;;;;;3.77;2.90;;;8.20;99.90;;;;;;4973612;28;20190;-75
2023/01/07 07:27:45;;;;;;;3.30;2.90;;;8.20;99.90;;;;;;4990971;28;20280;-76
2023/01/07 07:30:12;;;;;;;4.53;2.80;;;8.20;99.90;;;;;;4991148;28;20186;-76
2023/01/07 07:32:38;;;;;;;2.60;2.40;;;8.20;99.90;;;;;;4991124;28;20813;-75
2023/01/07 07:35:03;;;;;;;3.83;3.00;;;8.20;99.90;;;;;;4991335;28;20503;-75
2023/01/07 07:37:29;;;;;;;3.07;2.60;;;8.20;99.90;;;;;;4990008;28;20570;-75
2023/01/07 07:39:55;;;;;;;2.70;2.50;;;8.20;99.90;;;;;;4973700;28;21112;-75
2023/01/07 07:42:20;;;;;;;2.73;2.53;;;8.20;99.90;;;;;;4991452;28;20233;-75
2023/01/07 07:44:46;;;;;;;3.00;2.70;;;8.20;99.90;;;;;;4989928;28;20189;-75
2023/01/07 07:47:11;;;;;;;4.30;2.53;;;8.20;99.90;;;;;;4989694;28;20213;-75
2023/01/07 07:49:37;;;;;;;3.77;2.33;;;8.40;99.90;;;;;;4989622;28;20182;-75
2023/01/07 07:52:03;;;;;;;3.00;2.53;;;8.20;99.90;;;;;;4990676;28;20213;-75
2023/01/07 07:54:28;;;;;;;4.00;3.70;;;8.20;99.90;;;;;;4990703;28;20186;-75
2023/01/07 07:56:54;;;;;;;3.40;3.03;;;8.20;99.90;;;;;;4990590;28;20220;-75
2023/01/07 07:59:20;;;;;;;3.60;3.30;;;8.20;99.90;;;;;;4989007;28;20663;-75
2023/01/07 08:01:46;;;;;;;3.70;3.20;;;8.20;99.90;;;;;;4988838;28;20585;-75
2023/01/07 08:04:11;;;;;;;3.70;3.40;;;8.20;99.90;;;;;;4988702;28;20204;-75
2023/01/07 08:06:37;;;;;;;4.30;3.90;;;8.20;99.90;;;;;;4988837;28;20186;-75
2023/01/07 08:09:02;;;;;;;4.20;3.40;;;8.10;99.90;;;;;;4988965;28;20240;-75
2023/01/07 08:11:28;;;;;;;3.53;3.23;;;8.20;99.90;;;;;;4972838;28;20212;-75
2023/01/07 08:13:54;;;;;;;3.90;3.50;;;8.20;99.90;;;;;;4974393;28;20196;-76
2023/01/07 08:16:19;;;;;;;6.10;4.70;;;8.20;99.90;;;;;;4998344;28;20267;-75
2023/01/07 08:18:45;;;;;;;5.33;4.60;;;8.20;99.90;;;;;;5012085;28;20185;-75
2023/01/07 08:21:10;;;;;;;5.20;4.13;;;8.20;99.90;;;;;;4994371;28;20679;-75
2023/01/07 08:23:36;;;;;;;5.00;4.53;;;8.20;99.90;;;;;;4995821;28;20202;-76
2023/01/07 08:26:03;;;;;;;4.63;4.13;;;8.20;99.90;;;;;;4995293;28;20178;-75
2023/01/07 08:28:32;;;;;;;4.80;4.40;;;8.20;99.90;;;;;;4990195;28;20185;-76
2023/01/07 08:31:02;;;;;;;8.97;4.63;;;8.20;99.90;;;;;;4990297;28;20456;-76
2023/01/07 08:33:29;;;;;;;5.73;5.00;;;8.20;99.90;;;;;;4972037;28;20860;-76
2023/01/07 08:35:54;;;;;;;5.60;5.03;;;8.20;99.90;;;;;;4972075;28;20441;-76
2023/01/07 08:38:20;;;;;;;8.43;5.50;;;8.20;99.90;;;;;;4988235;28;20936;-76
2023/01/07 08:40:45;;;;;;;7.57;5.57;;;8.20;99.90;;;;;;4988375;28;20210;-76
2023/01/07 08:43:11;;;;;;;4.90;4.40;;;8.20;99.90;;;;;;4988712;28;20201;-76
2023/01/07 08:45:37;;;;;;;5.93;5.20;;;8.20;99.90;;;;;;4990115;28;20191;-76
2023/01/07 08:48:03;;;;;;;5.67;5.07;;;8.20;99.90;;;;;;4989810;28;20647;-76
2023/01/07 08:50:31;;;;;;;5.77;5.17;;;8.20;99.90;;;;;;4989690;28;20264;-76
2023/01/07 08:52:57;;;;;;;6.77;5.37;;;8.20;99.90;;;;;;4972020;28;21052;-76
2023/01/07 08:55:23;;;;;;;6.00;5.17;;;8.20;99.90;;;;;;4989598;28;20424;-76
2023/01/07 08:57:50;;;;;;;5.70;5.07;;;8.10;99.90;;;;;;4989578;28;20428;-76
2023/01/07 09:00:17;;;;;;;6.03;4.50;;;8.20;99.90;;;;;;4972001;28;20429;-76
2023/01/07 09:02:43;;;;;;;6.10;5.43;;;8.30;99.90;;;;;;4988484;28;20491;-76
2023/01/07 09:05:09;;;;;;;6.93;5.50;;;8.30;99.90;;;;;;4989405;28;20421;-75
2023/01/07 09:07:35;;;;;;;5.50;5.00;;;8.50;99.90;;;;;;4989472;28;20460;-76
2023/01/07 09:10:01;;;;;;;4.97;4.40;;;8.70;99.90;;;;;;4989364;28;20471;-76
2023/01/07 09:12:26;;;;;;;5.93;5.33;;;8.60;99.90;;;;;;4989608;28;20255;-75
2023/01/07 09:14:52;;;;;;;6.10;4.93;;;8.60;99.90;;;;;;4988517;28;21313;-75
2023/01/07 09:17:18;;;;;;;5.20;4.70;;;8.70;99.90;;;;;;4990173;28;20242;-75
2023/01/07 09:19:44;;;;;;;7.20;5.40;;;8.60;99.90;;;;;;4989514;28;20425;-75
2023/01/07 09:22:09;;;;;;;5.43;4.23;;;8.60;99.90;;;;;;4971442;28;20220;-76
2023/01/07 09:24:35;;;;;;;10.33;5.43;;;8.70;99.90;;;;;;4988640;28;20196;-76
2023/01/07 09:27:00;;;;;;;4.90;4.20;;;8.60;99.90;;;;;;4987080;28;20186;-76
2023/01/07 09:29:26;;;;;;;6.73;5.83;;;8.80;99.90;;;;;;4987497;28;20272;-75
2023/01/07 09:31:52;;;;;;;5.80;5.20;;;8.80;99.90;;;;;;4974481;28;20234;-76
2023/01/07 09:34:18;;;;;;;5.37;4.70;;;8.70;99.90;;;;;;4993165;28;20181;-76
2023/01/07 09:36:43;;;;;;;6.50;5.80;;;8.70;99.90;;;;;;4993597;28;20193;-76
2023/01/07 09:39:10;;;;;;;6.20;5.07;;;8.80;99.90;;;;;;4993513;28;20193;-76
2023/01/07 09:41:45;;;;;;;6.73;4.80;;;8.70;99.90;;;;;;4993372;28;20988;-76
2023/01/07 09:44:38;;;;;;;4.60;4.17;;;8.80;99.90;;;;;;4993634;28;21032;-76
2023/01/07 09:47:06;;;;;;;5.33;4.33;;;8.80;99.90;;;;;;4993150;28;20452;-76
2023/01/07 09:49:32;;;;;;;5.67;5.03;;;8.90;99.90;;;;;;4993317;28;20424;-77
2023/01/07 09:52:25;;;;;;;5.90;5.17;;;9.10;99.90;;;;;;4993258;28;20472;-75
2023/01/07 09:54:57;;;;;;;4.50;4.10;;;8.90;99.90;;;;;;4993469;28;20180;-76
2023/01/07 09:57:23;;;;;;;5.30;4.80;;;8.70;99.90;;;;;;4993668;28;20431;-74
2023/01/07 09:59:48;;;;;;;5.70;5.03;;;8.80;99.90;;;;;;4993471;28;20918;-76
2023/01/07 10:02:29;;;;;;;5.80;4.80;;;8.60;99.90;;;;;;4993550;28;20795;-76
2023/01/07 10:05:18;;;;;;;5.83;4.40;;;8.70;99.90;;;;;;4993444;28;20209;-76
2023/01/07 10:07:59;;;;;;;6.03;5.43;;;8.60;99.90;;;;;;4993371;28;20427;-76
2023/01/07 10:10:32;;;;;;;5.50;5.00;;;8.60;99.90;;;;;;4993156;28;20441;-76
2023/01/07 10:13:29;;;;;;;5.20;4.30;;;8.40;99.90;;;;;;4993110;28;20524;-75
2023/01/07 10:16:13;;;;;;;5.03;4.50;;;8.40;99.90;;;;;;4993230;28;20423;-76
2023/01/07 10:19:00;;;;;;;5.37;4.87;;;8.40;99.90;;;;;;4993129;28;20985;-76
2023/01/07 10:21:44;;;;;;;5.43;4.93;;;8.40;99.90;;;;;;4991525;28;20460;-74
2023/01/07 10:24:18;;;;;;;7.60;5.47;;;8.50;99.90;;;;;;4992074;28;20475;-76
2023/01/07 10:26:49;;;;;;;5.27;4.77;;;8.50;99.90;;;;;;4993743;28;20495;-75
2023/01/07 10:29:35;;;;;;;8.07;4.67;;;8.60;99.90;;;;;;4992892;28;20429;-75
2023/01/07 10:32:21;;;;;;;5.00;4.60;;;8.50;99.90;;;;;;4974656;28;20487;-75
2023/01/07 10:34:49;;;;;;;6.33;4.40;;;8.60;99.90;;;;;;4992495;28;20504;-75
2023/01/07 10:37:27;;;;;;;3.73;3.43;;;8.60;99.90;;;;;;4974751;28;20596;-77
2023/01/07 10:40:17;;;;;;;6.10;4.60;;;8.70;99.90;;;;;;4992261;28;20413;-76
2023/01/07 10:43:20;;;;;;;4.50;4.10;;;9.50;99.90;;;;;;4992226;28;20428;-75
2023/01/07 10:46:23;;;;;;;4.47;4.07;;;10.60;99.90;;;;;;4974183;28;20421;-76
2023/01/07 10:49:16;;;;;;;6.30;4.70;;;12.70;99.90;;;;;;4991653;28;20430;-76
2023/01/07 10:52:02;;;;;;;4.60;4.20;;;14.50;96.10;;;;;;4991728;28;20450;-76
2023/01/07 10:54:47;;;;;;;4.40;3.73;;;14.90;93.80;;;;;;4991648;28;20515;-76
2023/01/07 10:57:18;;;;;;;5.23;4.67;;;16.70;92.30;;;;;;4991791;28;20421;-76
2023/01/07 10:59:51;;;;;;;5.47;4.87;;;16.60;88.00;;;;;;4991423;28;20420;-76
2023/01/07 11:02:20;;;;;;;4.00;3.70;;;16.90;85.90;;;;;;4991534;28;20455;-77
2023/01/07 11:04:46;;;;;;;4.97;4.20;;;17.70;82.00;;;;;;4991430;28;20824;-77
2023/01/07 11:07:27;;;;;;;4.33;3.93;;;18.00;83.30;;;;;;4991499;28;20436;-75
2023/01/07 11:09:53;;;;;;;4.30;3.90;;;17.80;79.60;;;;;;4991334;28;20451;-76
2023/01/07 11:12:46;;;;;;;4.60;4.20;;;18.40;78.30;;;;;;4991219;28;20472;-76
2023/01/07 11:15:17;;;;;;;4.40;4.07;;;18.50;77.80;;;;;;4991388;28;20976;-76
2023/01/07 11:18:04;;;;;;;3.80;3.50;;;19.70;74.60;;;;;;4991085;28;20442;-76
2023/01/07 11:20:52;;;;;;;4.63;4.23;;;19.50;70.90;;;;;;4991072;28;21019;-76
2023/01/07 11:23:18;;;;;;;4.73;4.23;;;18.30;71.80;;;;;;4973408;28;20433;-76
2023/01/07 11:25:45;;;;;;;4.57;4.17;;;17.70;72.40;;;;;;4991025;28;20918;-76
2023/01/07 11:28:19;;;;;;;5.00;4.60;;;18.10;76.10;;;;;;4991277;28;20436;-76
2023/01/07 11:30:58;;;;;;;3.70;3.40;;;17.50;74.60;;;;;;4989290;28;20467;-76
2023/01/07 11:33:34;;;;;;;5.03;4.57;;;17.50;75.90;;;;;;4990573;28;20474;-76
2023/01/07 11:36:00;;;;;;;4.60;4.20;;;16.40;78.00;;;;;;4990782;28;20445;-76
2023/01/07 11:38:32;;;;;;;4.30;4.00;;;16.30;78.80;;;;;;4990917;28;20438;-76
2023/01/07 11:40:59;;;;;;;4.50;4.07;;;16.60;78.10;;;;;;4990758;28;20442;-76
2023/01/07 11:43:34;;;;;;;5.10;3.70;;;16.50;79.00;;;;;;4990882;28;20419;-76
2023/01/07 11:46:01;;;;;;;5.10;4.57;;;15.20;78.20;;;;;;4990703;28;20428;-76
2023/01/07 11:48:35;;;;;;;5.60;4.23;;;15.70;81.00;;;;;;4990546;28;20572;-76
2023/01/07 11:51:05;;;;;;;4.23;3.83;;;16.30;80.40;;;;;;4989076;28;20453;-75
2023/01/07 11:53:36;;;;;;;5.40;4.90;;;17.40;77.00;;;;;;4989831;28;20578;-75
2023/01/07 11:56:09;;;;;;;5.13;4.43;;;17.50;76.40;;;;;;4972774;28;20432;-76
2023/01/07 11:58:43;;;;;;;7.00;4.23;;;18.10;74.80;;;;;;4990412;28;20417;-76
2023/01/07 12:01:13;;;;;;;4.53;4.13;;;17.00;76.10;;;;;;4990354;28;20439;-76
2023/01/07 12:03:42;;;;;;;5.27;4.77;;;16.60;76.20;;;;;;4990427;28;20420;-76
2023/01/07 12:06:30;;;;;;;5.27;4.60;;;16.00;78.30;;;;;;4972427;28;20446;-76
2023/01/07 12:09:11;;;;;;;4.90;4.50;;;15.10;80.50;;;;;;4990148;28;20572;-76
2023/01/07 12:11:40;;;;;;;6.10;5.50;;;14.20;84.30;;;;;;4990128;28;20467;-76
2023/01/07 12:14:28;;;;;;;4.67;4.23;;;13.50;88.00;;;;;;4972457;28;20544;-76
2023/01/07 12:17:05;;;;;;;5.37;4.73;;;12.70;90.20;;;;;;4990475;28;20429;-76
2023/01/07 12:19:49;;;;;;;4.97;4.53;;;12.90;91.00;;;;;;4990089;28;20831;-76
2023/01/07 12:22:38;;;;;;;5.47;4.60;;;12.30;91.90;;;;;;4989977;28;20804;-76
2023/01/07 12:25:31;;;;;;;7.77;4.67;;;12.20;93.00;;;;;;4972608;28;20425;-76
2023/01/07 12:28:10;;;;;;;5.80;5.20;;;11.80;94.60;;;;;;4973553;28;20433;-76
2023/01/07 12:30:57;;;;;;;6.07;5.47;;;11.30;96.00;;;;;;4989780;28;20530;-76
2023/01/07 12:33:51;;;;;;;6.20;5.03;;;11.20;96.60;;;;;;4989646;28;20474;-76
2023/01/07 12:36:19;;;;;;;5.30;4.80;;;10.70;97.40;;;;;;4988222;28;20472;-76
2023/01/07 12:38:49;;;;;;;6.03;5.20;;;10.60;98.70;;;;;;4972060;28;20441;-76
2023/01/07 12:41:27;;;;;;;6.33;4.30;;;10.80;99.10;;;;;;4989649;28;20811;-76
2023/01/07 12:44:19;;;;;;;5.40;4.90;;;10.60;99.70;;;;;;4988281;28;20421;-75
2023/01/07 12:47:13;;;;;;;4.87;4.33;;;10.40;99.90;;;;;;4989595;28;20423;-76
2023/01/07 12:50:10;;;;;;;5.60;5.00;;;10.50;99.90;;;;;;4971898;28;20430;-77
2023/01/07 12:52:51;;;;;;;5.90;5.30;;;10.50;99.90;;;;;;4986411;28;20841;-76
2023/01/07 12:55:22;;;;;;;5.80;5.20;;;10.40;99.90;;;;;;4989382;28;20416;-76
2023/01/07 12:58:14;;;;;;;5.70;4.80;;;10.30;99.90;;;;;;4971867;28;21007;-76
2023/01/07 13:01:04;;;;;;;4.03;3.67;;;10.20;99.90;;;;;;4989431;28;20442;-76
2023/01/07 13:03:52;;;;;;;5.17;4.17;;;10.20;99.90;;;;;;4989320;28;20424;-76
2023/01/07 13:06:32;;;;;;;4.80;4.40;;;10.40;99.90;;;;;;4988654;28;20454;-76
2023/01/07 13:09:11;;;;;;;5.00;4.50;;;10.70;99.90;;;;;;4989410;28;20416;-76
2023/01/07 13:14:35;;;;;;;5.07;4.30;;;11.00;99.90;;;;;;4989626;28;20461;-75
2023/01/07 13:17:25;;;;;;;5.03;4.50;;;11.20;99.90;;;;;;4989568;28;20410;-75
2023/01/07 13:19:52;;;;;;;4.57;4.13;;;11.50;99.00;;;;;;4971552;28;20527;-76
2023/01/07 13:22:30;;;;;;;4.53;4.13;;;11.60;98.80;;;;;;4989222;28;20442;-75
2023/01/07 13:25:28;;;;;;;4.80;4.40;;;12.20;97.70;;;;;;4990058;28;21004;-77
2023/01/07 13:28:21;;;;;;;4.37;3.97;;;12.40;95.90;;;;;;4989448;28;20477;-76